La Paz, Argentina
Current Conditions -  °F | °C
As of 1:00 PM on Wednesday 26 Nov 2014 (Local Time) from SAME Reporting Station
Clear Clear  
Wind Chill: 82°   Ceiling: Unl
Heat Index: 82°   Visibility: 6mi
Dew Point: 43°   Wind: 9mph
Humidity: 25%   Direction: 50°NE
Pressure: 29.97"   Gusts: NA
Location:  33.47°S, 67.55°W
Report Text: SAME 261600Z 05008KT CAVOK 28/06 Q1015
Loading
Personal Weather Stations






























Interactive Weather Map New forecast layout! Learn more

10-Day Weather Forecast

Advertisements
Track Severe Weather on mobile